createdAt,value
2022-07-28T00:00:12.834Z,61.17
2022-07-28T00:02:40.036Z,60.15
2022-07-28T00:05:07.844Z,60.88
2022-07-28T00:07:35.424Z,60.50
2022-07-28T00:10:02.547Z,55.78
2022-07-28T00:12:29.669Z,55.28
2022-07-28T00:14:56.893Z,56.39
2022-07-28T00:17:24.021Z,55.33
2022-07-28T00:19:51.148Z,55.25
2022-07-28T00:22:18.840Z,54.97
2022-07-28T00:24:46.198Z,56.03
2022-07-28T00:27:19.245Z,55.76
2022-07-28T00:29:50.199Z,56.01
2022-07-28T00:32:19.213Z,56.03
2022-07-28T00:34:47.022Z,56.29
2022-07-28T00:37:14.808Z,56.57
2022-07-28T00:39:43.224Z,56.41
2022-07-28T00:42:10.346Z,56.96
2022-07-28T00:44:39.242Z,57.61
2022-07-28T00:47:06.477Z,57.67
2022-07-28T00:49:33.682Z,57.44
2022-07-28T00:52:01.141Z,57.79
2022-07-28T00:54:28.205Z,57.53
2022-07-28T00:56:55.580Z,57.28
2022-07-28T00:59:22.606Z,56.96
2022-07-28T01:01:50.167Z,56.46
2022-07-28T01:04:21.245Z,57.82
2022-07-28T01:07:25.622Z,57.85
2022-07-28T01:10:14.086Z,57.67
2022-07-28T01:13:05.050Z,57.42
2022-07-28T01:15:49.425Z,57.23
2022-07-28T01:18:29.736Z,57.38
2022-07-28T01:21:07.232Z,59.35
2022-07-28T01:23:34.353Z,57.51
2022-07-28T01:26:36.302Z,57.55
2022-07-28T01:29:19.581Z,58.10
2022-07-28T01:32:19.207Z,58.76
2022-07-28T01:34:54.606Z,57.72
2022-07-28T01:37:28.145Z,58.53
2022-07-28T01:39:59.633Z,57.95
2022-07-28T01:42:34.674Z,58.79
2022-07-28T01:45:04.497Z,58.40
2022-07-28T01:47:33.946Z,58.48
2022-07-28T01:50:05.549Z,59.22
2022-07-28T01:52:34.578Z,60.04
2022-07-28T01:55:02.767Z,59.52
2022-07-28T01:57:32.908Z,60.23
2022-07-28T02:00:01.314Z,60.11
2022-07-28T02:02:31.090Z,59.07
2022-07-28T02:05:00.889Z,60.11
2022-07-28T02:07:30.410Z,59.83
2022-07-28T02:09:58.860Z,60.91
2022-07-28T02:12:28.406Z,60.40
2022-07-28T02:14:57.906Z,61.74
2022-07-28T02:17:31.896Z,61.21
2022-07-28T02:19:59.633Z,62.65
2022-07-28T02:22:28.030Z,63.31
2022-07-28T02:24:56.831Z,61.75
2022-07-28T02:27:39.170Z,64.48
2022-07-28T02:30:12.922Z,64.56
2022-07-28T02:32:52.929Z,63.96
2022-07-28T02:35:51.084Z,63.50
2022-07-28T02:38:26.585Z,63.11
2022-07-28T02:40:57.575Z,63.53
2022-07-28T02:43:49.804Z,63.98
2022-07-28T02:46:23.994Z,63.00
2022-07-28T02:48:57.166Z,63.59
2022-07-28T02:51:28.837Z,63.37
2022-07-28T02:53:57.155Z,63.35
2022-07-28T02:56:25.472Z,62.25
2022-07-28T02:58:54.451Z,63.65
2022-07-28T03:01:23.903Z,63.28
2022-07-28T03:03:51.695Z,63.82
2022-07-28T03:06:26.664Z,63.72
2022-07-28T03:08:57.512Z,64.28
2022-07-28T03:11:24.793Z,64.68
2022-07-28T03:13:51.937Z,64.18
2022-07-28T03:16:19.190Z,63.83
2022-07-28T03:18:47.807Z,63.48
2022-07-28T03:21:15.220Z,63.17
2022-07-28T03:23:46.403Z,63.45
2022-07-28T03:26:25.867Z,63.77
2022-07-28T03:28:54.473Z,64.92
2022-07-28T03:31:24.111Z,64.65
2022-07-28T03:33:51.947Z,64.83
2022-07-28T03:36:26.865Z,64.95
2022-07-28T03:39:00.795Z,64.90
2022-07-28T03:41:29.874Z,65.58
2022-07-28T03:43:58.673Z,63.78
2022-07-28T03:46:27.447Z,66.52
2022-07-28T03:48:54.768Z,65.03
2022-07-28T03:51:21.853Z,65.71
2022-07-28T03:53:49.461Z,65.97
2022-07-28T03:56:16.547Z,66.56
2022-07-28T03:58:43.553Z,66.11
2022-07-28T04:01:10.625Z,66.67
2022-07-28T04:03:43.906Z,65.36
2022-07-28T04:06:15.527Z,65.57
2022-07-28T04:08:45.261Z,64.25
2022-07-28T04:11:12.645Z,65.45
2022-07-28T04:13:40.033Z,65.27
2022-07-28T04:16:07.548Z,64.56
2022-07-28T04:18:35.215Z,65.46
2022-07-28T04:21:02.195Z,64.95
2022-07-28T04:23:29.225Z,64.99
2022-07-28T04:25:56.294Z,64.68
2022-07-28T04:28:24.185Z,64.21
2022-07-28T04:30:51.336Z,64.10
2022-07-28T04:33:19.723Z,64.68
2022-07-28T04:35:47.380Z,64.46
2022-07-28T04:38:17.134Z,64.33
2022-07-28T04:40:44.118Z,64.75
2022-07-28T04:43:11.298Z,64.91
2022-07-28T04:45:38.693Z,65.10
2022-07-28T04:48:13.579Z,64.03
2022-07-28T04:50:42.123Z,64.26
2022-07-28T04:53:09.108Z,64.40
2022-07-28T04:55:38.708Z,63.06
2022-07-28T04:58:06.585Z,63.18
2022-07-28T05:00:36.378Z,63.43
2022-07-28T05:03:04.286Z,64.99
2022-07-28T05:05:31.478Z,62.73
2022-07-28T05:07:58.521Z,61.65
2022-07-28T05:10:25.638Z,61.08
2022-07-28T05:12:54.428Z,58.85
2022-07-28T05:15:21.743Z,60.78
2022-07-28T05:17:50.097Z,57.08
2022-07-28T05:20:17.425Z,54.54
2022-07-28T05:22:53.658Z,51.97
2022-07-28T05:25:23.638Z,49.84
2022-07-28T05:27:52.605Z,50.43
2022-07-28T05:30:20.050Z,48.02
2022-07-28T05:32:47.906Z,48.25
2022-07-28T05:35:16.611Z,49.55
2022-07-28T05:37:44.034Z,50.75
2022-07-28T05:40:14.138Z,48.98
2022-07-28T05:42:47.490Z,49.97
2022-07-28T05:45:17.027Z,44.89
2022-07-28T05:47:52.129Z,46.70
2022-07-28T05:50:22.335Z,47.84
2022-07-28T05:52:51.166Z,51.63
2022-07-28T05:55:19.257Z,49.92
2022-07-28T05:57:46.747Z,49.38
2022-07-28T06:00:20.377Z,47.69
2022-07-28T06:02:49.617Z,46.00
2022-07-28T06:05:22.872Z,44.96
2022-07-28T06:07:51.636Z,44.32
2022-07-28T06:10:22.301Z,42.36
2022-07-28T06:12:55.016Z,44.91
2022-07-28T06:15:27.720Z,46.75
2022-07-28T06:17:55.695Z,47.63
2022-07-28T06:20:25.053Z,44.05
2022-07-28T06:22:55.222Z,42.96
2022-07-28T06:25:28.129Z,44.56
2022-07-28T06:27:58.757Z,41.51
2022-07-28T06:30:27.429Z,41.57
2022-07-28T06:32:55.993Z,41.51
2022-07-28T06:35:23.388Z,42.63
2022-07-28T06:37:51.984Z,41.61
2022-07-28T06:40:20.745Z,42.54
2022-07-28T06:42:47.839Z,42.10
2022-07-28T06:45:21.023Z,41.39
2022-07-28T06:47:53.453Z,38.76
2022-07-28T06:50:25.503Z,39.55
2022-07-28T06:52:56.807Z,39.07
2022-07-28T06:55:24.068Z,40.24
2022-07-28T06:57:51.091Z,39.53
2022-07-28T07:00:18.526Z,39.72
2022-07-28T07:02:45.542Z,40.77
2022-07-28T07:05:13.873Z,37.12
2022-07-28T07:07:43.266Z,37.45
2022-07-28T07:10:11.463Z,39.31
2022-07-28T07:12:39.052Z,38.36
2022-07-28T07:15:07.630Z,37.45
2022-07-28T07:17:37.293Z,36.77
2022-07-28T07:20:06.919Z,39.63
2022-07-28T07:22:33.944Z,39.54
2022-07-28T07:25:14.174Z,38.37
2022-07-28T07:27:41.364Z,38.45
2022-07-28T07:30:10.117Z,38.49
2022-07-28T07:32:37.583Z,37.10
2022-07-28T07:35:06.483Z,37.82
2022-07-28T07:37:33.917Z,37.60
2022-07-28T07:40:02.571Z,37.77
2022-07-28T07:42:29.558Z,39.12
2022-07-28T07:44:56.748Z,39.00
2022-07-28T07:47:23.782Z,38.24
2022-07-28T07:49:51.602Z,39.16
2022-07-28T07:52:18.838Z,38.71
2022-07-28T07:54:45.921Z,38.18
2022-07-28T07:57:13.162Z,38.67
2022-07-28T07:59:40.193Z,38.33
2022-07-28T08:02:07.394Z,37.45
2022-07-28T08:04:37.485Z,36.06
2022-07-28T08:07:06.320Z,35.04
2022-07-28T08:09:34.675Z,35.46
2022-07-28T08:12:02.100Z,36.06
2022-07-28T08:14:29.163Z,36.32
2022-07-28T08:16:58.438Z,34.87
2022-07-28T08:19:26.445Z,35.25
2022-07-28T08:21:53.733Z,34.72
2022-07-28T08:24:33.827Z,34.86
2022-07-28T08:27:05.061Z,36.24
2022-07-28T08:29:32.813Z,36.40
2022-07-28T08:32:03.781Z,35.16
2022-07-28T08:34:33.759Z,35.33
2022-07-28T08:37:03.693Z,33.88
2022-07-28T08:39:32.365Z,36.54
2022-07-28T08:42:21.815Z,35.34
2022-07-28T08:45:05.392Z,35.95
2022-07-28T08:47:46.014Z,37.63
2022-07-28T08:50:24.328Z,33.41
2022-07-28T08:52:53.171Z,34.81
2022-07-28T08:55:31.539Z,33.49
2022-07-28T08:58:00.780Z,34.00
2022-07-28T09:00:28.325Z,33.84
2022-07-28T09:02:56.107Z,35.24
2022-07-28T09:05:25.445Z,36.41
2022-07-28T09:07:55.614Z,32.63
2022-07-28T09:10:23.342Z,36.29
2022-07-28T09:12:50.914Z,36.94
2022-07-28T09:15:17.962Z,36.51
2022-07-28T09:17:45.148Z,37.08
2022-07-28T09:20:13.881Z,35.70
2022-07-28T09:23:02.108Z,36.93
2022-07-28T09:25:31.166Z,37.73
2022-07-28T09:28:13.741Z,37.83
2022-07-28T09:30:53.442Z,35.45
2022-07-28T09:33:42.990Z,34.86
2022-07-28T09:36:16.223Z,34.71
2022-07-28T09:38:43.712Z,34.50
2022-07-28T09:41:11.815Z,32.95
2022-07-28T09:43:44.973Z,34.40
2022-07-28T09:46:15.802Z,34.65
2022-07-28T09:48:49.738Z,34.79
2022-07-28T09:51:31.422Z,37.90
2022-07-28T09:54:17.495Z,35.54
2022-07-28T09:56:46.083Z,34.83
2022-07-28T09:59:14.893Z,33.49
2022-07-28T10:02:02.169Z,34.82
2022-07-28T10:04:35.590Z,36.28
2022-07-28T10:07:14.193Z,37.26
2022-07-28T10:09:42.211Z,35.75
2022-07-28T10:12:26.426Z,33.65
2022-07-28T10:14:56.454Z,34.25
2022-07-28T10:17:25.305Z,34.22
2022-07-28T10:19:54.416Z,33.95
2022-07-28T10:22:26.439Z,34.24
2022-07-28T10:24:54.934Z,34.04
2022-07-28T10:27:27.741Z,32.44
2022-07-28T10:30:00.857Z,32.71
2022-07-28T10:32:29.756Z,32.65
2022-07-28T10:35:04.904Z,31.61
2022-07-28T10:37:39.163Z,31.78
2022-07-28T10:40:10.955Z,31.01
2022-07-28T10:42:40.873Z,30.84
2022-07-28T10:45:11.621Z,32.18
2022-07-28T10:47:38.664Z,32.97
2022-07-28T10:50:08.474Z,32.12
2022-07-28T10:52:47.391Z,33.93
2022-07-28T10:55:53.291Z,34.36
2022-07-28T10:58:46.722Z,32.73
2022-07-28T11:01:53.394Z,32.29
2022-07-28T11:04:48.169Z,31.72
2022-07-28T11:07:17.139Z,31.76
2022-07-28T11:09:47.412Z,29.62
2022-07-28T11:12:17.556Z,30.15
2022-07-28T11:14:44.992Z,31.43
2022-07-28T11:17:16.791Z,31.77
2022-07-28T11:22:44.098Z,30.82
2022-07-28T11:25:18.685Z,30.92
2022-07-28T11:27:50.653Z,30.69
2022-07-28T11:30:32.658Z,31.65
2022-07-28T11:33:03.820Z,32.40
2022-07-28T11:35:47.310Z,32.37
2022-07-28T11:38:14.805Z,32.68
2022-07-28T11:40:51.915Z,30.55
2022-07-28T11:43:28.577Z,29.32
2022-07-28T11:46:11.387Z,29.52
2022-07-28T11:48:47.342Z,29.65
2022-07-28T11:51:15.639Z,29.36
2022-07-28T11:53:43.890Z,29.02
2022-07-28T11:56:23.972Z,32.07
2022-07-28T11:59:06.321Z,33.20
2022-07-28T12:01:37.059Z,33.75
2022-07-28T12:04:15.881Z,33.98
2022-07-28T12:06:49.484Z,34.50
2022-07-28T12:09:21.953Z,33.73
2022-07-28T12:11:54.109Z,31.37
2022-07-28T12:14:22.666Z,31.85
2022-07-28T12:16:53.446Z,32.68
2022-07-28T12:19:21.281Z,32.52
2022-07-28T12:21:55.166Z,33.46
2022-07-28T12:24:45.047Z,33.04
2022-07-28T12:27:15.339Z,32.20
2022-07-28T12:29:43.961Z,32.93
2022-07-28T12:32:15.918Z,32.86
2022-07-28T12:34:44.464Z,33.49
2022-07-28T12:37:14.091Z,32.86
2022-07-28T12:39:42.251Z,32.25
2022-07-28T12:42:12.607Z,31.98
2022-07-28T12:44:42.834Z,31.91
2022-07-28T12:47:13.127Z,31.65
2022-07-28T12:49:43.720Z,31.61
2022-07-28T12:52:22.118Z,31.66
2022-07-28T12:54:54.447Z,31.24
2022-07-28T12:57:48.311Z,31.61
2022-07-28T13:00:22.886Z,30.12
2022-07-28T13:02:52.987Z,32.11
2022-07-28T13:05:30.456Z,32.53
2022-07-28T13:08:06.034Z,32.19
2022-07-28T13:10:33.432Z,33.51
2022-07-28T13:13:07.174Z,32.27
2022-07-28T13:15:34.346Z,32.81
2022-07-28T13:18:01.496Z,32.97
2022-07-28T13:20:28.668Z,33.52
2022-07-28T13:22:57.271Z,33.33
2022-07-28T13:25:24.497Z,33.44
2022-07-28T13:27:55.570Z,32.82
2022-07-28T13:30:23.637Z,33.23
2022-07-28T13:32:50.961Z,34.08
2022-07-28T13:35:19.246Z,32.87
2022-07-28T13:37:48.716Z,32.20
2022-07-28T13:40:16.236Z,32.30
2022-07-28T13:42:52.921Z,33.06
2022-07-28T13:45:21.401Z,32.33
2022-07-28T13:47:52.230Z,33.21
2022-07-28T13:50:20.889Z,32.63
2022-07-28T13:52:48.604Z,31.50
2022-07-28T13:55:19.889Z,31.84
2022-07-28T13:57:49.870Z,32.43
2022-07-28T14:00:18.185Z,31.70
2022-07-28T14:02:48.717Z,32.63
2022-07-28T14:05:16.223Z,33.25
2022-07-28T14:07:48.847Z,32.06
2022-07-28T14:10:18.123Z,32.68
2022-07-28T14:12:46.292Z,32.06
2022-07-28T14:15:13.996Z,32.07
2022-07-28T14:17:43.432Z,31.95
2022-07-28T14:20:14.735Z,31.80
2022-07-28T14:22:43.761Z,30.73
2022-07-28T14:25:19.428Z,31.86
2022-07-28T14:27:47.643Z,32.38
2022-07-28T14:30:14.607Z,32.13
2022-07-28T14:32:41.596Z,32.07
2022-07-28T14:35:08.897Z,32.01
2022-07-28T14:38:11.251Z,32.51
2022-07-28T14:40:23.677Z,32.25
2022-07-28T14:42:50.894Z,32.24
2022-07-28T14:45:18.216Z,32.88
2022-07-28T14:47:45.748Z,33.31
2022-07-28T14:50:13.309Z,32.97
2022-07-28T14:52:40.706Z,33.57
2022-07-28T14:55:12.016Z,32.88
2022-07-28T14:57:48.078Z,32.62
2022-07-28T15:00:23.751Z,31.28
2022-07-28T15:02:52.984Z,30.83
2022-07-28T15:05:22.155Z,30.83
2022-07-28T15:07:51.944Z,32.05
2022-07-28T15:10:20.624Z,30.20
2022-07-28T15:12:48.144Z,30.51
2022-07-28T15:15:15.207Z,29.16
2022-07-28T15:17:42.285Z,29.49
2022-07-28T15:20:10.595Z,30.67
2022-07-28T15:22:38.012Z,29.22
2022-07-28T15:25:05.741Z,27.84
2022-07-28T15:27:33.833Z,29.19
2022-07-28T15:30:02.923Z,29.89
2022-07-28T15:32:33.447Z,29.72
2022-07-28T15:35:00.544Z,29.02
2022-07-28T15:37:28.012Z,29.29
2022-07-28T15:39:55.163Z,29.39
2022-07-28T15:42:22.234Z,29.00
2022-07-28T15:44:49.262Z,30.10
2022-07-28T15:47:16.558Z,31.30
2022-07-28T15:49:43.515Z,31.58
2022-07-28T15:52:10.539Z,30.90
2022-07-28T15:54:37.544Z,30.77
2022-07-28T15:57:04.789Z,30.81
2022-07-28T15:59:49.992Z,31.21
2022-07-28T16:02:19.140Z,30.13
2022-07-28T16:04:51.475Z,31.15
2022-07-28T16:07:24.003Z,31.38
2022-07-28T16:09:54.115Z,31.76
2022-07-28T16:12:25.170Z,32.78
2022-07-28T16:14:54.042Z,32.35
2022-07-28T16:17:22.481Z,31.69
2022-07-28T16:19:51.086Z,31.93
2022-07-28T16:22:19.797Z,32.52
2022-07-28T16:24:47.306Z,33.03
2022-07-28T16:27:14.799Z,33.38
2022-07-28T16:29:42.873Z,33.64
2022-07-28T16:32:10.054Z,33.66
2022-07-28T16:34:37.456Z,31.55
2022-07-28T16:37:06.001Z,32.24
2022-07-28T16:39:34.779Z,31.56
2022-07-28T16:42:03.038Z,31.63
2022-07-28T16:44:31.133Z,31.00
2022-07-28T16:46:58.900Z,31.02
2022-07-28T16:49:26.095Z,31.62
2022-07-28T16:51:54.555Z,31.88
2022-07-28T16:54:22.040Z,32.27
2022-07-28T16:56:49.615Z,33.48
2022-07-28T16:59:16.809Z,33.28
2022-07-28T17:01:46.491Z,33.09
2022-07-28T17:04:15.372Z,32.92
2022-07-28T17:06:42.898Z,32.90
2022-07-28T17:09:10.927Z,32.86
2022-07-28T17:11:38.426Z,32.94
2022-07-28T17:14:05.596Z,33.54
2022-07-28T17:16:32.591Z,33.21
2022-07-28T17:19:00.037Z,33.13
2022-07-28T17:21:27.540Z,32.67
2022-07-28T17:23:54.594Z,32.94
2022-07-28T17:29:09.774Z,32.70
2022-07-28T17:31:38.448Z,32.67
2022-07-28T17:34:05.752Z,33.11
2022-07-28T17:36:35.301Z,32.59
2022-07-28T17:39:02.718Z,33.10
2022-07-28T17:41:30.519Z,32.86
2022-07-28T17:43:57.552Z,32.74
2022-07-28T17:46:26.453Z,32.93
2022-07-28T17:48:54.340Z,33.59
2022-07-28T17:51:21.875Z,33.85
2022-07-28T17:53:50.206Z,33.82
2022-07-28T17:56:17.986Z,33.73
2022-07-28T17:58:45.874Z,33.99
2022-07-28T18:01:14.999Z,34.09
2022-07-28T18:03:57.608Z,34.69
2022-07-28T18:06:34.923Z,34.50
2022-07-28T18:09:07.037Z,35.16
2022-07-28T18:11:56.716Z,34.72
2022-07-28T18:14:30.147Z,35.07
2022-07-28T18:16:58.263Z,35.54
2022-07-28T18:19:29.366Z,35.57
2022-07-28T18:21:56.836Z,35.93
2022-07-28T18:24:24.097Z,36.17
2022-07-28T18:26:52.800Z,36.39
2022-07-28T18:29:21.436Z,36.52
2022-07-28T18:31:51.158Z,36.70
2022-07-28T18:34:19.184Z,36.67
2022-07-28T18:36:50.833Z,36.92
2022-07-28T18:39:17.980Z,37.18
2022-07-28T18:41:47.197Z,37.18
2022-07-28T18:44:19.203Z,37.76
2022-07-28T18:46:47.117Z,37.58
2022-07-28T18:49:14.971Z,37.67
2022-07-28T18:51:45.200Z,37.95
2022-07-28T18:54:21.636Z,37.82
2022-07-28T18:56:54.357Z,38.16
2022-07-28T18:59:22.241Z,38.35
2022-07-28T19:01:49.374Z,38.59
2022-07-28T19:04:16.879Z,38.47
2022-07-28T19:06:44.173Z,39.09
2022-07-28T19:09:11.216Z,39.20
2022-07-28T19:11:42.398Z,39.36
2022-07-28T19:14:12.801Z,39.49
2022-07-28T19:16:39.932Z,39.97
2022-07-28T19:19:06.974Z,40.27
2022-07-28T19:21:34.609Z,40.42
2022-07-28T19:24:02.041Z,40.66
2022-07-28T19:26:29.962Z,41.46
2022-07-28T19:28:57.069Z,41.40
2022-07-28T19:31:24.218Z,41.58
2022-07-28T19:33:52.156Z,41.24
2022-07-28T19:36:20.125Z,40.96
2022-07-28T19:38:47.175Z,41.22
2022-07-28T19:41:14.319Z,41.32
2022-07-28T19:43:41.513Z,41.07
2022-07-28T19:46:08.780Z,40.67
2022-07-28T19:48:36.196Z,41.14
2022-07-28T19:51:03.498Z,40.70
2022-07-28T19:53:32.236Z,41.49
2022-07-28T19:56:01.566Z,40.69
2022-07-28T19:58:28.887Z,40.24
2022-07-28T20:00:56.370Z,39.69
2022-07-28T20:04:00.564Z,39.26
2022-07-28T20:06:11.705Z,39.30
2022-07-28T20:08:39.358Z,39.37
2022-07-28T20:11:06.906Z,39.48
2022-07-28T20:13:34.774Z,38.69
2022-07-28T20:16:01.758Z,38.43
2022-07-28T20:18:28.784Z,38.22
2022-07-28T20:20:55.811Z,38.26
2022-07-28T20:23:22.894Z,38.15
2022-07-28T20:25:49.890Z,37.61
2022-07-28T20:28:16.835Z,37.43
2022-07-28T20:30:43.912Z,37.48
2022-07-28T20:33:10.979Z,37.85
2022-07-28T20:35:37.970Z,37.55
2022-07-28T20:38:05.947Z,37.25
2022-07-28T20:40:32.954Z,37.66
2022-07-28T20:42:59.990Z,37.98
2022-07-28T20:45:27.007Z,40.25
2022-07-28T20:47:54.064Z,44.21
2022-07-28T20:50:21.261Z,50.14
2022-07-28T20:52:48.757Z,53.87
2022-07-28T20:57:42.764Z,56.61
2022-07-28T21:00:21.329Z,53.79
2022-07-28T21:02:48.943Z,56.67
2022-07-28T21:05:23.884Z,56.77
2022-07-28T21:08:05.980Z,58.57
2022-07-28T21:10:33.878Z,61.09
2022-07-28T21:13:00.873Z,62.70
2022-07-28T21:15:28.042Z,62.93
2022-07-28T21:17:56.943Z,65.20
2022-07-28T21:20:24.640Z,67.55
2022-07-28T21:22:51.970Z,69.39
2022-07-28T21:25:19.493Z,70.75
2022-07-28T21:28:04.944Z,73.01
2022-07-28T21:30:32.125Z,74.35
2022-07-28T21:32:59.165Z,80.32
2022-07-28T21:35:26.359Z,83.90
2022-07-28T21:37:53.379Z,84.83
2022-07-28T21:40:20.418Z,87.96
2022-07-28T21:42:47.513Z,92.32
2022-07-28T21:45:14.619Z,93.08
2022-07-28T21:47:42.052Z,91.94
2022-07-28T21:50:10.017Z,92.18
2022-07-28T21:52:38.035Z,92.00
2022-07-28T21:55:07.347Z,91.87
2022-07-28T21:57:34.711Z,92.91
2022-07-28T22:00:03.548Z,91.56
2022-07-28T22:02:32.943Z,91.16
2022-07-28T22:05:01.116Z,91.65
2022-07-28T22:07:28.243Z,94.75
2022-07-28T22:09:55.254Z,95.88
2022-07-28T22:12:22.975Z,93.42
2022-07-28T22:14:50.045Z,90.69
2022-07-28T22:17:17.583Z,90.13
2022-07-28T22:19:44.606Z,88.31
2022-07-28T22:22:11.683Z,89.49
2022-07-28T22:24:38.812Z,90.64
2022-07-28T22:27:05.907Z,88.93
2022-07-28T22:29:33.002Z,84.75
2022-07-28T22:32:00.146Z,84.44
2022-07-28T22:34:28.038Z,88.75
2022-07-28T22:36:55.499Z,90.17
2022-07-28T22:39:22.553Z,88.18
2022-07-28T22:41:49.629Z,85.37
2022-07-28T22:44:17.298Z,87.83
2022-07-28T22:46:45.029Z,86.40
2022-07-28T22:49:12.143Z,84.66
2022-07-28T22:51:39.205Z,84.90
2022-07-28T22:54:13.859Z,86.13
2022-07-28T22:56:41.239Z,88.33
2022-07-28T22:59:08.747Z,89.62
2022-07-28T23:01:36.851Z,90.24
2022-07-28T23:04:04.636Z,90.52
2022-07-28T23:06:33.504Z,89.02
2022-07-28T23:09:00.940Z,88.38
2022-07-28T23:11:28.436Z,89.71
2022-07-28T23:13:55.870Z,88.20
2022-07-28T23:16:23.805Z,88.19
2022-07-28T23:18:51.239Z,87.37
2022-07-28T23:21:18.789Z,87.30
2022-07-28T23:23:46.263Z,86.80
2022-07-28T23:26:13.673Z,86.59
2022-07-28T23:28:41.086Z,86.40
2022-07-28T23:31:08.613Z,86.91
2022-07-28T23:33:54.517Z,86.59
2022-07-28T23:36:27.268Z,86.11
2022-07-28T23:38:56.824Z,86.70
2022-07-28T23:41:24.573Z,86.51
2022-07-28T23:43:52.164Z,85.78
2022-07-28T23:46:19.580Z,84.93
2022-07-28T23:48:47.113Z,85.60
2022-07-28T23:51:14.299Z,85.33
2022-07-28T23:53:41.368Z,84.75
2022-07-28T23:56:09.037Z,85.73
2022-07-28T23:58:36.284Z,86.96
